createdAt,value
2022-11-14T00:04:29.249Z,8.85
2022-11-14T00:09:51.409Z,8.81
2022-11-14T00:15:13.776Z,8.87
2022-11-14T00:20:35.834Z,8.76
2022-11-14T00:25:57.871Z,8.84
2022-11-14T00:31:19.646Z,8.97
2022-11-14T00:36:41.490Z,8.92
2022-11-14T00:42:03.397Z,8.84
2022-11-14T00:47:25.169Z,8.94
2022-11-14T00:52:46.958Z,8.83
2022-11-14T00:58:09.387Z,8.76
2022-11-14T01:03:31.200Z,8.80
2022-11-14T01:08:53.078Z,8.65
2022-11-14T01:14:14.904Z,8.65
2022-11-14T01:19:36.685Z,8.64
2022-11-14T01:24:59.006Z,8.62
2022-11-14T01:30:20.792Z,8.74
2022-11-14T01:35:42.571Z,8.69
2022-11-14T01:41:05.086Z,8.67
2022-11-14T01:46:37.420Z,8.76
2022-11-14T01:52:03.766Z,8.74
2022-11-14T01:57:30.945Z,8.76
2022-11-14T02:02:53.728Z,8.79
2022-11-14T02:08:16.554Z,8.69
2022-11-14T02:13:38.552Z,8.66
2022-11-14T02:19:00.348Z,8.68
2022-11-14T02:24:22.124Z,8.61
2022-11-14T02:29:43.924Z,8.58
2022-11-14T02:35:06.257Z,8.65
2022-11-14T02:40:28.063Z,8.56
2022-11-14T02:45:49.899Z,8.57
2022-11-14T02:51:11.671Z,8.61
2022-11-14T02:56:33.616Z,8.60
2022-11-14T03:01:55.554Z,8.59
2022-11-14T03:07:17.553Z,8.55
2022-11-14T03:12:39.712Z,8.56
2022-11-14T03:18:01.495Z,8.63
2022-11-14T03:23:23.254Z,8.60
2022-11-14T03:28:45.058Z,8.39
2022-11-14T03:34:06.890Z,8.38
2022-11-14T03:39:28.760Z,8.49
2022-11-14T03:44:50.636Z,8.45
2022-11-14T03:50:12.433Z,8.46
2022-11-14T03:55:34.399Z,8.42
2022-11-14T04:00:56.531Z,8.34
2022-11-14T04:06:18.322Z,8.47
2022-11-14T04:11:40.092Z,8.40
2022-11-14T04:17:01.869Z,8.38
2022-11-14T04:22:23.748Z,8.35
2022-11-14T04:27:45.524Z,8.31
2022-11-14T04:33:07.323Z,8.46
2022-11-14T04:38:29.462Z,8.44
2022-11-14T04:43:51.446Z,8.38
2022-11-14T04:49:13.220Z,8.40
2022-11-14T04:54:35.070Z,8.17
2022-11-14T04:59:56.840Z,8.29
2022-11-14T05:05:19.010Z,8.44
2022-11-14T05:10:44.858Z,8.35
2022-11-14T05:16:06.735Z,8.38
2022-11-14T05:21:28.547Z,8.41
2022-11-14T05:26:50.336Z,8.26
2022-11-14T05:32:16.081Z,8.30
2022-11-14T05:37:38.365Z,8.17
2022-11-14T05:43:00.144Z,8.32
2022-11-14T05:48:21.933Z,8.33
2022-11-14T05:53:43.821Z,8.38
2022-11-14T05:59:05.677Z,8.40
2022-11-14T06:04:27.486Z,8.27
2022-11-14T06:09:49.347Z,8.37
2022-11-14T06:15:11.151Z,8.41
2022-11-14T06:20:32.937Z,8.34
2022-11-14T06:26:01.892Z,8.36
2022-11-14T06:31:24.509Z,8.42
2022-11-14T06:36:46.277Z,8.50
2022-11-14T06:42:08.147Z,8.43
2022-11-14T06:47:29.957Z,8.38
2022-11-14T06:52:51.988Z,8.29
2022-11-14T06:58:13.791Z,8.30
2022-11-14T07:03:35.563Z,8.39
2022-11-14T07:08:58.158Z,8.38
2022-11-14T07:14:19.929Z,8.39
2022-11-14T07:19:41.722Z,8.35
2022-11-14T07:25:03.655Z,8.32
2022-11-14T07:30:25.485Z,8.42
2022-11-14T07:35:47.269Z,8.41
2022-11-14T07:41:14.636Z,8.32
2022-11-14T07:46:36.458Z,8.44
2022-11-14T07:51:58.242Z,8.36
2022-11-14T07:57:20.036Z,8.11
2022-11-14T08:02:41.857Z,8.19
2022-11-14T08:08:04.761Z,8.05
2022-11-14T08:13:32.559Z,8.09
2022-11-14T08:18:55.338Z,8.09
2022-11-14T08:24:17.147Z,7.97
2022-11-14T08:29:38.951Z,8.09
2022-11-14T08:35:00.746Z,8.17
2022-11-14T08:40:22.560Z,8.15
2022-11-14T08:45:44.503Z,8.08
2022-11-14T08:51:06.863Z,8.18
2022-11-14T08:56:28.669Z,8.51
2022-11-14T09:01:50.444Z,8.22
2022-11-14T09:07:12.318Z,8.33
2022-11-14T09:12:34.481Z,8.30
2022-11-14T09:17:58.080Z,8.37
2022-11-14T09:23:19.890Z,8.30
2022-11-14T09:28:41.828Z,8.53
2022-11-14T09:34:03.616Z,8.28
2022-11-14T09:39:25.431Z,8.59
2022-11-14T09:44:57.306Z,8.62
2022-11-14T09:50:31.445Z,8.63
2022-11-14T09:55:53.291Z,8.48
2022-11-14T10:01:25.417Z,8.33
2022-11-14T10:07:08.626Z,8.49
2022-11-14T10:12:55.142Z,8.69
2022-11-14T10:18:16.869Z,8.58
2022-11-14T10:23:56.065Z,8.63
2022-11-14T10:29:42.763Z,8.52
2022-11-14T10:35:14.705Z,8.21
2022-11-14T10:40:46.520Z,8.38
2022-11-14T10:46:17.940Z,8.42
2022-11-14T10:51:44.075Z,8.41
2022-11-14T10:57:18.219Z,8.34
2022-11-14T11:02:54.646Z,8.62
2022-11-14T11:08:42.080Z,8.66
2022-11-14T11:14:03.300Z,8.60
2022-11-14T11:19:27.157Z,8.30
2022-11-14T11:24:49.046Z,8.17
2022-11-14T11:30:21.260Z,8.39
2022-11-14T11:35:44.733Z,8.38
2022-11-14T11:42:06.136Z,8.05
2022-11-14T11:47:16.072Z,8.35
2022-11-14T11:53:15.710Z,8.18
2022-11-14T11:58:40.607Z,8.30
2022-11-14T12:04:02.534Z,8.07
2022-11-14T12:10:08.761Z,8.11
2022-11-14T12:15:47.546Z,7.98
2022-11-14T12:21:31.785Z,8.11
2022-11-14T12:27:05.860Z,8.03
2022-11-14T12:33:16.236Z,8.08
2022-11-14T12:38:52.735Z,8.15
2022-11-14T12:44:26.736Z,7.92
2022-11-14T12:49:48.536Z,8.13
2022-11-14T12:55:22.638Z,8.05
2022-11-14T13:00:44.387Z,8.02
2022-11-14T13:06:17.593Z,8.00
2022-11-14T13:11:45.097Z,7.91
2022-11-14T13:17:27.508Z,7.84
2022-11-14T13:22:49.400Z,7.72
2022-11-14T13:28:36.021Z,7.90
2022-11-14T13:34:02.151Z,7.91
2022-11-14T13:39:38.001Z,7.69
2022-11-14T13:45:28.148Z,7.80
2022-11-14T13:50:55.409Z,7.83
2022-11-14T13:56:49.557Z,7.62
2022-11-14T14:02:11.356Z,7.60
2022-11-14T14:08:10.439Z,7.60
2022-11-14T14:14:15.038Z,7.44
2022-11-14T14:19:58.576Z,7.43
2022-11-14T14:25:20.357Z,7.53
2022-11-14T14:31:01.112Z,7.60
2022-11-14T14:36:28.452Z,7.57
2022-11-14T14:41:50.409Z,7.56
2022-11-14T14:47:17.884Z,7.46
2022-11-14T14:52:39.685Z,7.61
2022-11-14T14:58:25.455Z,7.46
2022-11-14T15:03:56.137Z,7.53
2022-11-14T15:09:23.609Z,7.48
2022-11-14T15:14:46.380Z,7.46
2022-11-14T15:20:22.388Z,7.46
2022-11-14T15:25:44.709Z,7.38
2022-11-14T15:31:07.029Z,7.39
2022-11-14T15:36:29.036Z,7.24
2022-11-14T15:42:13.297Z,7.26
2022-11-14T15:47:40.060Z,7.29
2022-11-14T15:53:06.454Z,7.10
2022-11-14T15:58:40.148Z,7.26
2022-11-14T16:04:04.040Z,7.25
2022-11-14T16:09:26.036Z,7.22
2022-11-14T16:14:47.833Z,7.31
2022-11-14T16:20:21.163Z,7.29
2022-11-14T16:25:42.956Z,7.17
2022-11-14T16:31:11.766Z,7.07
2022-11-14T16:36:34.856Z,7.34
2022-11-14T16:42:01.555Z,7.37
2022-11-14T16:47:23.438Z,6.90
2022-11-14T16:52:45.279Z,7.10
2022-11-14T16:58:07.054Z,7.03
2022-11-14T17:03:29.138Z,7.07
2022-11-14T17:08:56.999Z,7.16
2022-11-14T17:14:18.988Z,7.23
2022-11-14T17:19:40.906Z,7.11
2022-11-14T17:25:02.780Z,7.18
2022-11-14T17:30:24.608Z,7.25
2022-11-14T17:35:46.425Z,7.22
2022-11-14T17:41:08.263Z,7.20
2022-11-14T17:46:31.023Z,7.07
2022-11-14T17:51:52.841Z,7.04
2022-11-14T17:57:14.683Z,7.05
2022-11-14T18:02:36.464Z,7.22
2022-11-14T18:07:58.235Z,7.17
2022-11-14T18:13:20.039Z,7.00
2022-11-14T18:18:42.272Z,6.84
2022-11-14T18:24:04.383Z,6.79
2022-11-14T18:29:26.192Z,6.71
2022-11-14T18:34:47.999Z,6.77
2022-11-14T18:40:15.878Z,6.81
2022-11-14T18:45:38.558Z,6.99
2022-11-14T18:51:02.310Z,6.92
2022-11-14T18:56:24.251Z,6.84
2022-11-14T19:01:46.191Z,6.82
2022-11-14T19:07:08.291Z,6.89
2022-11-14T19:12:30.085Z,6.86
2022-11-14T19:17:51.899Z,6.70
2022-11-14T19:23:13.742Z,6.82
2022-11-14T19:28:35.556Z,6.49
2022-11-14T19:33:57.399Z,6.63
2022-11-14T19:39:19.421Z,6.60
2022-11-14T19:44:41.300Z,6.67
2022-11-14T19:50:03.240Z,6.77
2022-11-14T19:55:25.085Z,6.57
2022-11-14T20:00:46.959Z,6.60
2022-11-14T20:06:20.997Z,6.71
2022-11-14T20:11:42.882Z,6.67
2022-11-14T20:17:04.732Z,6.67
2022-11-14T20:22:26.557Z,6.61
2022-11-14T20:27:48.369Z,6.70
2022-11-14T20:33:10.578Z,6.69
2022-11-14T20:38:32.456Z,6.70
2022-11-14T20:43:54.289Z,6.62
2022-11-14T20:49:16.226Z,6.70
2022-11-14T20:54:38.004Z,6.77
2022-11-14T20:59:59.858Z,6.67
2022-11-14T21:05:21.638Z,6.50
2022-11-14T21:10:46.136Z,6.54
2022-11-14T21:16:14.549Z,6.40
2022-11-14T21:21:37.384Z,6.48
2022-11-14T21:26:59.176Z,6.36
2022-11-14T21:32:20.942Z,6.44
2022-11-14T21:37:42.720Z,6.52
2022-11-14T21:43:04.513Z,6.48
2022-11-14T21:48:30.272Z,6.63
2022-11-14T21:53:58.803Z,6.62
2022-11-14T21:59:20.658Z,6.53
2022-11-14T22:04:42.502Z,6.57
2022-11-14T22:10:04.942Z,6.52
2022-11-14T22:15:26.799Z,6.49
2022-11-14T22:20:48.982Z,6.43
2022-11-14T22:26:11.771Z,6.33
2022-11-14T22:31:33.696Z,6.37
2022-11-14T22:36:55.633Z,6.47
2022-11-14T22:42:17.461Z,6.43
2022-11-14T22:47:39.298Z,6.39
2022-11-14T22:53:01.141Z,6.32
2022-11-14T22:58:23.298Z,6.36
2022-11-14T23:03:45.244Z,6.37
2022-11-14T23:09:07.168Z,6.35
2022-11-14T23:14:28.967Z,6.36
2022-11-14T23:19:50.763Z,6.34
2022-11-14T23:25:12.966Z,6.32
2022-11-14T23:30:35.121Z,6.42
2022-11-14T23:35:56.966Z,6.37
2022-11-14T23:41:23.629Z,6.35
2022-11-14T23:46:45.290Z,5.80
2022-11-14T23:52:07.153Z,5.93
2022-11-14T23:57:29.129Z,6.11
